sensor_id;sensor_type;location;lat;lon;timestamp;temperature;humidity
18287;DHT22;9269;50.838;12.094;2022-10-16T00:01:51;19.40;60.60
18287;DHT22;9269;50.838;12.094;2022-10-16T00:04:19;19.40;60.80
18287;DHT22;9269;50.838;12.094;2022-10-16T00:06:48;19.50;61.00
18287;DHT22;9269;50.838;12.094;2022-10-16T00:09:17;19.50;60.90
18287;DHT22;9269;50.838;12.094;2022-10-16T00:11:50;19.40;60.90
18287;DHT22;9269;50.838;12.094;2022-10-16T00:14:19;19.50;60.60
18287;DHT22;9269;50.838;12.094;2022-10-16T00:16:48;19.50;61.00
18287;DHT22;9269;50.838;12.094;2022-10-16T00:19:18;19.60;60.90
18287;DHT22;9269;50.838;12.094;2022-10-16T00:21:47;19.60;61.00
18287;DHT22;9269;50.838;12.094;2022-10-16T00:24:17;19.50;60.20
18287;DHT22;9269;50.838;12.094;2022-10-16T00:26:49;19.50;60.90
18287;DHT22;9269;50.838;12.094;2022-10-16T00:29:18;19.50;60.60
18287;DHT22;9269;50.838;12.094;2022-10-16T00:31:47;19.50;60.80
18287;DHT22;9269;50.838;12.094;2022-10-16T00:34:18;19.50;61.00
18287;DHT22;9269;50.838;12.094;2022-10-16T00:36:47;19.60;60.60
18287;DHT22;9269;50.838;12.094;2022-10-16T00:39:16;19.60;60.50
18287;DHT22;9269;50.838;12.094;2022-10-16T00:41:45;19.40;60.70
18287;DHT22;9269;50.838;12.094;2022-10-16T00:44:47;19.40;60.90
18287;DHT22;9269;50.838;12.094;2022-10-16T00:47:20;19.40;61.00
18287;DHT22;9269;50.838;12.094;2022-10-16T00:49:53;19.40;61.20
18287;DHT22;9269;50.838;12.094;2022-10-16T00:52:23;19.50;61.20
18287;DHT22;9269;50.838;12.094;2022-10-16T00:54:53;19.40;61.10
18287;DHT22;9269;50.838;12.094;2022-10-16T00:57:24;19.40;61.40
18287;DHT22;9269;50.838;12.094;2022-10-16T00:59:53;19.40;61.60
18287;DHT22;9269;50.838;12.094;2022-10-16T01:02:22;19.30;61.70
18287;DHT22;9269;50.838;12.094;2022-10-16T01:04:53;19.30;61.60
18287;DHT22;9269;50.838;12.094;2022-10-16T01:07:37;19.40;61.80
18287;DHT22;9269;50.838;12.094;2022-10-16T01:10:17;19.30;61.80
18287;DHT22;9269;50.838;12.094;2022-10-16T01:12:54;19.30;61.60
18287;DHT22;9269;50.838;12.094;2022-10-16T01:15:28;19.20;61.60
18287;DHT22;9269;50.838;12.094;2022-10-16T01:18:05;19.20;61.90
18287;DHT22;9269;50.838;12.094;2022-10-16T01:20:42;19.40;62.00
18287;DHT22;9269;50.838;12.094;2022-10-16T01:23:21;19.20;61.90
18287;DHT22;9269;50.838;12.094;2022-10-16T01:26:11;19.30;62.30
18287;DHT22;9269;50.838;12.094;2022-10-16T01:28:51;19.30;61.90
18287;DHT22;9269;50.838;12.094;2022-10-16T01:31:27;19.30;62.20
18287;DHT22;9269;50.838;12.094;2022-10-16T01:34:02;19.20;61.90
18287;DHT22;9269;50.838;12.094;2022-10-16T01:36:38;19.20;61.80
18287;DHT22;9269;50.838;12.094;2022-10-16T01:39:09;19.20;62.10
18287;DHT22;9269;50.838;12.094;2022-10-16T01:41:44;19.20;62.20
18287;DHT22;9269;50.838;12.094;2022-10-16T01:44:20;19.20;61.80
18287;DHT22;9269;50.838;12.094;2022-10-16T01:46:52;19.30;61.60
18287;DHT22;9269;50.838;12.094;2022-10-16T01:49:21;19.20;61.90
18287;DHT22;9269;50.838;12.094;2022-10-16T01:51:55;19.30;61.60
18287;DHT22;9269;50.838;12.094;2022-10-16T01:54:29;19.30;61.60
18287;DHT22;9269;50.838;12.094;2022-10-16T01:56:59;19.20;61.70
18287;DHT22;9269;50.838;12.094;2022-10-16T01:59:32;19.10;61.60
18287;DHT22;9269;50.838;12.094;2022-10-16T02:02:05;19.20;61.80
18287;DHT22;9269;50.838;12.094;2022-10-16T02:04:38;19.20;61.70
18287;DHT22;9269;50.838;12.094;2022-10-16T02:07:07;19.10;61.50
18287;DHT22;9269;50.838;12.094;2022-10-16T02:09:36;19.10;61.80
18287;DHT22;9269;50.838;12.094;2022-10-16T02:12:10;19.20;61.80
18287;DHT22;9269;50.838;12.094;2022-10-16T02:14:41;19.10;62.00
18287;DHT22;9269;50.838;12.094;2022-10-16T02:17:12;19.10;62.10
18287;DHT22;9269;50.838;12.094;2022-10-16T02:19:41;19.20;62.00
18287;DHT22;9269;50.838;12.094;2022-10-16T02:22:15;19.10;61.50
18287;DHT22;9269;50.838;12.094;2022-10-16T02:24:51;19.10;61.30
18287;DHT22;9269;50.838;12.094;2022-10-16T02:27:25;19.00;61.40
18287;DHT22;9269;50.838;12.094;2022-10-16T02:30:02;19.10;61.60
18287;DHT22;9269;50.838;12.094;2022-10-16T02:32:38;19.00;61.50
18287;DHT22;9269;50.838;12.094;2022-10-16T02:35:08;19.10;61.50
18287;DHT22;9269;50.838;12.094;2022-10-16T02:37:38;19.10;61.40
18287;DHT22;9269;50.838;12.094;2022-10-16T02:40:09;19.10;61.80
18287;DHT22;9269;50.838;12.094;2022-10-16T02:42:40;19.00;61.90
18287;DHT22;9269;50.838;12.094;2022-10-16T02:45:13;19.00;61.60
18287;DHT22;9269;50.838;12.094;2022-10-16T02:47:41;19.10;61.60
18287;DHT22;9269;50.838;12.094;2022-10-16T02:50:10;19.20;61.40
18287;DHT22;9269;50.838;12.094;2022-10-16T02:52:39;19.10;61.60
18287;DHT22;9269;50.838;12.094;2022-10-16T02:55:08;19.10;61.50
18287;DHT22;9269;50.838;12.094;2022-10-16T02:57:37;19.10;61.80
18287;DHT22;9269;50.838;12.094;2022-10-16T03:00:11;19.10;61.20
18287;DHT22;9269;50.838;12.094;2022-10-16T03:02:40;19.10;61.60
18287;DHT22;9269;50.838;12.094;2022-10-16T03:05:09;19.10;61.90
18287;DHT22;9269;50.838;12.094;2022-10-16T03:07:38;19.10;61.60
18287;DHT22;9269;50.838;12.094;2022-10-16T03:10:07;19.00;61.70
18287;DHT22;9269;50.838;12.094;2022-10-16T03:12:36;19.10;61.40
18287;DHT22;9269;50.838;12.094;2022-10-16T03:15:05;19.00;61.40
18287;DHT22;9269;50.838;12.094;2022-10-16T03:17:36;19.10;61.50
18287;DHT22;9269;50.838;12.094;2022-10-16T03:20:05;19.00;61.00
18287;DHT22;9269;50.838;12.094;2022-10-16T03:22:33;18.90;61.20
18287;DHT22;9269;50.838;12.094;2022-10-16T03:25:02;18.90;61.30
18287;DHT22;9269;50.838;12.094;2022-10-16T03:27:31;19.00;61.30
18287;DHT22;9269;50.838;12.094;2022-10-16T03:29:59;19.00;61.00
18287;DHT22;9269;50.838;12.094;2022-10-16T03:32:28;19.00;61.10
18287;DHT22;9269;50.838;12.094;2022-10-16T03:34:58;18.90;61.20
18287;DHT22;9269;50.838;12.094;2022-10-16T03:37:29;18.90;61.30
18287;DHT22;9269;50.838;12.094;2022-10-16T03:39:58;18.80;61.10
18287;DHT22;9269;50.838;12.094;2022-10-16T03:42:29;18.90;60.90
18287;DHT22;9269;50.838;12.094;2022-10-16T03:44:58;18.80;61.00
18287;DHT22;9269;50.838;12.094;2022-10-16T03:47:26;18.90;61.20
18287;DHT22;9269;50.838;12.094;2022-10-16T03:49:55;18.90;60.90
18287;DHT22;9269;50.838;12.094;2022-10-16T03:52:25;18.80;60.80
18287;DHT22;9269;50.838;12.094;2022-10-16T03:54:54;18.80;60.80
18287;DHT22;9269;50.838;12.094;2022-10-16T03:57:22;18.90;61.00
18287;DHT22;9269;50.838;12.094;2022-10-16T03:59:52;18.90;60.80
18287;DHT22;9269;50.838;12.094;2022-10-16T04:02:20;18.90;60.50
18287;DHT22;9269;50.838;12.094;2022-10-16T04:04:49;18.90;60.40
18287;DHT22;9269;50.838;12.094;2022-10-16T04:07:17;18.80;60.90
18287;DHT22;9269;50.838;12.094;2022-10-16T04:09:47;18.80;60.80
18287;DHT22;9269;50.838;12.094;2022-10-16T04:12:16;18.80;61.00
18287;DHT22;9269;50.838;12.094;2022-10-16T04:14:44;18.80;61.40
18287;DHT22;9269;50.838;12.094;2022-10-16T04:17:13;18.80;61.20
18287;DHT22;9269;50.838;12.094;2022-10-16T04:19:41;18.80;61.00
18287;DHT22;9269;50.838;12.094;2022-10-16T04:22:10;18.80;60.90
18287;DHT22;9269;50.838;12.094;2022-10-16T04:24:38;18.80;61.00
18287;DHT22;9269;50.838;12.094;2022-10-16T04:27:08;18.80;61.00
18287;DHT22;9269;50.838;12.094;2022-10-16T04:29:37;18.80;61.40
18287;DHT22;9269;50.838;12.094;2022-10-16T04:32:07;18.80;61.00
18287;DHT22;9269;50.838;12.094;2022-10-16T04:34:38;18.70;61.10
18287;DHT22;9269;50.838;12.094;2022-10-16T04:37:07;18.80;61.30
18287;DHT22;9269;50.838;12.094;2022-10-16T04:39:36;18.70;61.50
18287;DHT22;9269;50.838;12.094;2022-10-16T04:42:04;18.70;61.80
18287;DHT22;9269;50.838;12.094;2022-10-16T04:44:35;18.70;61.50
18287;DHT22;9269;50.838;12.094;2022-10-16T04:47:03;18.70;61.20
18287;DHT22;9269;50.838;12.094;2022-10-16T04:49:31;18.70;61.30
18287;DHT22;9269;50.838;12.094;2022-10-16T04:52:00;18.70;61.90
18287;DHT22;9269;50.838;12.094;2022-10-16T04:54:29;18.60;61.50
18287;DHT22;9269;50.838;12.094;2022-10-16T04:56:57;18.70;61.40
18287;DHT22;9269;50.838;12.094;2022-10-16T04:59:29;18.70;61.60
18287;DHT22;9269;50.838;12.094;2022-10-16T05:01:59;18.60;61.80
18287;DHT22;9269;50.838;12.094;2022-10-16T05:04:28;18.60;62.00
18287;DHT22;9269;50.838;12.094;2022-10-16T05:06:58;18.60;62.00
18287;DHT22;9269;50.838;12.094;2022-10-16T05:09:26;18.70;62.30
18287;DHT22;9269;50.838;12.094;2022-10-16T05:11:55;18.80;62.20
18287;DHT22;9269;50.838;12.094;2022-10-16T05:14:24;18.80;62.20
18287;DHT22;9269;50.838;12.094;2022-10-16T05:16:52;18.80;62.20
18287;DHT22;9269;50.838;12.094;2022-10-16T05:19:22;18.80;62.20
18287;DHT22;9269;50.838;12.094;2022-10-16T05:21:55;18.70;62.20
18287;DHT22;9269;50.838;12.094;2022-10-16T05:24:23;18.80;62.20
18287;DHT22;9269;50.838;12.094;2022-10-16T05:26:52;18.80;62.00
18287;DHT22;9269;50.838;12.094;2022-10-16T05:29:21;18.80;61.80
18287;DHT22;9269;50.838;12.094;2022-10-16T05:31:53;18.80;61.80
18287;DHT22;9269;50.838;12.094;2022-10-16T05:34:23;18.80;62.00
18287;DHT22;9269;50.838;12.094;2022-10-16T05:36:52;18.80;61.80
18287;DHT22;9269;50.838;12.094;2022-10-16T05:39:23;18.80;62.30
18287;DHT22;9269;50.838;12.094;2022-10-16T05:41:52;18.80;62.00
18287;DHT22;9269;50.838;12.094;2022-10-16T05:44:21;18.80;62.00
18287;DHT22;9269;50.838;12.094;2022-10-16T05:46:49;18.80;62.20
18287;DHT22;9269;50.838;12.094;2022-10-16T05:49:18;18.80;62.00
18287;DHT22;9269;50.838;12.094;2022-10-16T05:51:48;18.80;62.10
18287;DHT22;9269;50.838;12.094;2022-10-16T05:54:17;18.80;62.10
18287;DHT22;9269;50.838;12.094;2022-10-16T05:56:45;18.80;61.80
18287;DHT22;9269;50.838;12.094;2022-10-16T05:59:13;18.90;62.10
18287;DHT22;9269;50.838;12.094;2022-10-16T06:01:42;18.80;62.20
18287;DHT22;9269;50.838;12.094;2022-10-16T06:04:11;18.80;62.00
18287;DHT22;9269;50.838;12.094;2022-10-16T06:06:39;18.90;62.20
18287;DHT22;9269;50.838;12.094;2022-10-16T06:09:10;18.90;62.10
18287;DHT22;9269;50.838;12.094;2022-10-16T06:11:38;18.90;61.60
18287;DHT22;9269;50.838;12.094;2022-10-16T06:14:08;18.80;61.90
18287;DHT22;9269;50.838;12.094;2022-10-16T06:16:37;18.90;62.00
18287;DHT22;9269;50.838;12.094;2022-10-16T06:19:06;18.90;62.10
18287;DHT22;9269;50.838;12.094;2022-10-16T06:21:35;18.90;62.10
18287;DHT22;9269;50.838;12.094;2022-10-16T06:24:03;18.80;62.20
18287;DHT22;9269;50.838;12.094;2022-10-16T06:26:33;18.90;62.20
18287;DHT22;9269;50.838;12.094;2022-10-16T06:29:02;18.90;62.10
18287;DHT22;9269;50.838;12.094;2022-10-16T06:31:30;19.00;61.90
18287;DHT22;9269;50.838;12.094;2022-10-16T06:34:01;18.90;62.10
18287;DHT22;9269;50.838;12.094;2022-10-16T06:36:31;19.00;62.10
18287;DHT22;9269;50.838;12.094;2022-10-16T06:39:00;19.00;62.20
18287;DHT22;9269;50.838;12.094;2022-10-16T06:41:28;19.00;62.50
18287;DHT22;9269;50.838;12.094;2022-10-16T06:43:58;19.10;62.30
18287;DHT22;9269;50.838;12.094;2022-10-16T06:46:27;19.10;62.60
18287;DHT22;9269;50.838;12.094;2022-10-16T06:48:55;19.10;62.30
18287;DHT22;9269;50.838;12.094;2022-10-16T06:51:24;19.10;62.70
18287;DHT22;9269;50.838;12.094;2022-10-16T06:53:55;19.10;62.60
18287;DHT22;9269;50.838;12.094;2022-10-16T06:56:31;19.20;62.80
18287;DHT22;9269;50.838;12.094;2022-10-16T06:59:02;19.20;63.00
18287;DHT22;9269;50.838;12.094;2022-10-16T07:01:31;19.20;62.20
18287;DHT22;9269;50.838;12.094;2022-10-16T07:04:01;19.20;62.10
18287;DHT22;9269;50.838;12.094;2022-10-16T07:06:32;19.30;62.30
18287;DHT22;9269;50.838;12.094;2022-10-16T07:09:03;19.30;62.20
18287;DHT22;9269;50.838;12.094;2022-10-16T07:11:33;19.30;62.20
18287;DHT22;9269;50.838;12.094;2022-10-16T07:14:03;19.40;62.30
18287;DHT22;9269;50.838;12.094;2022-10-16T07:16:32;19.40;62.10
18287;DHT22;9269;50.838;12.094;2022-10-16T07:19:02;19.40;62.60
18287;DHT22;9269;50.838;12.094;2022-10-16T07:21:32;19.40;62.60
18287;DHT22;9269;50.838;12.094;2022-10-16T07:24:06;19.50;62.50
18287;DHT22;9269;50.838;12.094;2022-10-16T07:26:36;19.50;62.50
18287;DHT22;9269;50.838;12.094;2022-10-16T07:29:12;19.50;62.50
18287;DHT22;9269;50.838;12.094;2022-10-16T07:31:41;19.60;62.40
18287;DHT22;9269;50.838;12.094;2022-10-16T07:34:10;19.60;62.80
18287;DHT22;9269;50.838;12.094;2022-10-16T07:36:39;19.60;62.00
18287;DHT22;9269;50.838;12.094;2022-10-16T07:39:09;19.60;62.50
18287;DHT22;9269;50.838;12.094;2022-10-16T07:41:38;19.60;62.40
18287;DHT22;9269;50.838;12.094;2022-10-16T07:44:09;19.70;62.80
18287;DHT22;9269;50.838;12.094;2022-10-16T07:46:39;19.90;62.30
18287;DHT22;9269;50.838;12.094;2022-10-16T07:49:08;19.80;62.30
18287;DHT22;9269;50.838;12.094;2022-10-16T07:51:39;19.80;62.00
18287;DHT22;9269;50.838;12.094;2022-10-16T07:54:08;19.80;62.30
18287;DHT22;9269;50.838;12.094;2022-10-16T07:56:36;19.90;62.20
18287;DHT22;9269;50.838;12.094;2022-10-16T07:59:11;19.90;62.00
18287;DHT22;9269;50.838;12.094;2022-10-16T08:01:39;20.00;61.80
18287;DHT22;9269;50.838;12.094;2022-10-16T08:04:10;20.00;62.00
18287;DHT22;9269;50.838;12.094;2022-10-16T08:06:42;20.00;61.80
18287;DHT22;9269;50.838;12.094;2022-10-16T08:09:10;20.00;61.80
18287;DHT22;9269;50.838;12.094;2022-10-16T08:11:39;20.00;61.80
18287;DHT22;9269;50.838;12.094;2022-10-16T08:14:10;20.10;62.00
18287;DHT22;9269;50.838;12.094;2022-10-16T08:16:42;20.10;61.90
18287;DHT22;9269;50.838;12.094;2022-10-16T08:19:13;20.10;61.90
18287;DHT22;9269;50.838;12.094;2022-10-16T08:21:42;20.10;61.80
18287;DHT22;9269;50.838;12.094;2022-10-16T08:24:12;20.20;61.80
18287;DHT22;9269;50.838;12.094;2022-10-16T08:26:41;20.20;61.90
18287;DHT22;9269;50.838;12.094;2022-10-16T08:29:10;20.20;61.60
18287;DHT22;9269;50.838;12.094;2022-10-16T08:31:39;20.20;62.10
18287;DHT22;9269;50.838;12.094;2022-10-16T08:34:09;20.20;62.10
18287;DHT22;9269;50.838;12.094;2022-10-16T08:36:37;20.20;62.00
18287;DHT22;9269;50.838;12.094;2022-10-16T08:39:08;20.30;62.10
18287;DHT22;9269;50.838;12.094;2022-10-16T08:42:12;20.40;62.10
18287;DHT22;9269;50.838;12.094;2022-10-16T08:45:12;20.40;62.00
18287;DHT22;9269;50.838;12.094;2022-10-16T08:47:49;20.50;62.40
18287;DHT22;9269;50.838;12.094;2022-10-16T08:50:25;20.50;62.10
18287;DHT22;9269;50.838;12.094;2022-10-16T08:52:55;20.50;62.00
18287;DHT22;9269;50.838;12.094;2022-10-16T08:55:33;20.70;62.10
18287;DHT22;9269;50.838;12.094;2022-10-16T08:58:11;20.70;61.70
18287;DHT22;9269;50.838;12.094;2022-10-16T09:00:40;20.80;62.00
18287;DHT22;9269;50.838;12.094;2022-10-16T09:03:18;20.80;61.80
18287;DHT22;9269;50.838;12.094;2022-10-16T09:06:21;20.80;61.60
18287;DHT22;9269;50.838;12.094;2022-10-16T09:09:05;20.90;62.00
18287;DHT22;9269;50.838;12.094;2022-10-16T09:11:46;20.90;60.40
18287;DHT22;9269;50.838;12.094;2022-10-16T09:14:40;20.90;60.30
18287;DHT22;9269;50.838;12.094;2022-10-16T09:17:29;20.90;60.40
18287;DHT22;9269;50.838;12.094;2022-10-16T09:20:13;21.10;59.80
18287;DHT22;9269;50.838;12.094;2022-10-16T09:22:43;21.20;60.40
18287;DHT22;9269;50.838;12.094;2022-10-16T09:25:15;21.20;59.80
18287;DHT22;9269;50.838;12.094;2022-10-16T09:27:47;21.20;59.90
18287;DHT22;9269;50.838;12.094;2022-10-16T09:30:18;21.30;59.90
18287;DHT22;9269;50.838;12.094;2022-10-16T09:32:49;21.30;59.70
18287;DHT22;9269;50.838;12.094;2022-10-16T09:35:20;21.40;59.60
18287;DHT22;9269;50.838;12.094;2022-10-16T09:37:55;21.40;59.50
18287;DHT22;9269;50.838;12.094;2022-10-16T09:40:26;21.40;59.20
18287;DHT22;9269;50.838;12.094;2022-10-16T09:43:02;21.40;59.50
18287;DHT22;9269;50.838;12.094;2022-10-16T09:45:34;21.40;58.60
18287;DHT22;9269;50.838;12.094;2022-10-16T09:48:18;21.50;58.80
18287;DHT22;9269;50.838;12.094;2022-10-16T09:50:55;21.50;58.40
18287;DHT22;9269;50.838;12.094;2022-10-16T09:53:41;21.70;58.50
18287;DHT22;9269;50.838;12.094;2022-10-16T09:56:22;21.60;58.30
18287;DHT22;9269;50.838;12.094;2022-10-16T09:58:52;21.70;58.40
18287;DHT22;9269;50.838;12.094;2022-10-16T10:01:24;21.70;58.10
18287;DHT22;9269;50.838;12.094;2022-10-16T10:03:57;21.90;57.90
18287;DHT22;9269;50.838;12.094;2022-10-16T10:06:30;21.90;57.80
18287;DHT22;9269;50.838;12.094;2022-10-16T10:09:04;21.90;57.30
18287;DHT22;9269;50.838;12.094;2022-10-16T10:11:38;22.00;57.20
18287;DHT22;9269;50.838;12.094;2022-10-16T10:14:20;22.00;57.10
18287;DHT22;9269;50.838;12.094;2022-10-16T10:16:50;22.00;57.20
18287;DHT22;9269;50.838;12.094;2022-10-16T10:19:21;22.10;56.90
18287;DHT22;9269;50.838;12.094;2022-10-16T10:21:54;22.10;56.30
18287;DHT22;9269;50.838;12.094;2022-10-16T10:24:23;22.10;56.80
18287;DHT22;9269;50.838;12.094;2022-10-16T10:26:59;22.20;56.70
18287;DHT22;9269;50.838;12.094;2022-10-16T10:29:42;22.10;56.40
18287;DHT22;9269;50.838;12.094;2022-10-16T10:32:19;22.10;56.10
18287;DHT22;9269;50.838;12.094;2022-10-16T10:35:05;22.20;56.40
18287;DHT22;9269;50.838;12.094;2022-10-16T10:37:45;22.20;56.50
18287;DHT22;9269;50.838;12.094;2022-10-16T10:40:28;22.20;56.10
18287;DHT22;9269;50.838;12.094;2022-10-16T10:43:03;22.20;56.20
18287;DHT22;9269;50.838;12.094;2022-10-16T10:45:42;22.30;56.10
18287;DHT22;9269;50.838;12.094;2022-10-16T10:48:29;22.30;56.20
18287;DHT22;9269;50.838;12.094;2022-10-16T10:51:15;22.40;55.80
18287;DHT22;9269;50.838;12.094;2022-10-16T10:53:55;22.40;55.80
18287;DHT22;9269;50.838;12.094;2022-10-16T10:56:46;22.50;55.70
18287;DHT22;9269;50.838;12.094;2022-10-16T11:02:17;22.60;55.60
18287;DHT22;9269;50.838;12.094;2022-10-16T11:07:39;22.80;55.30
18287;DHT22;9269;50.838;12.094;2022-10-16T11:10:21;22.70;55.50
18287;DHT22;9269;50.838;12.094;2022-10-16T11:12:54;22.80;55.40
18287;DHT22;9269;50.838;12.094;2022-10-16T11:15:27;22.90;55.70
18287;DHT22;9269;50.838;12.094;2022-10-16T11:18:00;22.90;55.40
18287;DHT22;9269;50.838;12.094;2022-10-16T11:20:42;23.00;55.10
18287;DHT22;9269;50.838;12.094;2022-10-16T11:23:14;23.10;55.20
18287;DHT22;9269;50.838;12.094;2022-10-16T11:25:45;23.20;54.60
18287;DHT22;9269;50.838;12.094;2022-10-16T11:28:20;23.20;54.60
18287;DHT22;9269;50.838;12.094;2022-10-16T11:31:00;23.20;54.50
18287;DHT22;9269;50.838;12.094;2022-10-16T11:33:34;23.30;54.30
18287;DHT22;9269;50.838;12.094;2022-10-16T11:36:11;23.20;53.90
18287;DHT22;9269;50.838;12.094;2022-10-16T11:38:46;23.20;54.10
18287;DHT22;9269;50.838;12.094;2022-10-16T11:41:22;23.20;54.00
18287;DHT22;9269;50.838;12.094;2022-10-16T11:44:03;23.20;53.80
18287;DHT22;9269;50.838;12.094;2022-10-16T11:46:36;23.20;54.30
18287;DHT22;9269;50.838;12.094;2022-10-16T11:49:29;23.10;54.10
18287;DHT22;9269;50.838;12.094;2022-10-16T11:52:04;22.90;54.40
18287;DHT22;9269;50.838;12.094;2022-10-16T11:54:38;23.00;54.60
18287;DHT22;9269;50.838;12.094;2022-10-16T11:57:12;22.90;54.50
18287;DHT22;9269;50.838;12.094;2022-10-16T11:59:46;22.90;54.80
18287;DHT22;9269;50.838;12.094;2022-10-16T12:02:29;22.90;54.70
18287;DHT22;9269;50.838;12.094;2022-10-16T12:05:11;22.90;54.90
18287;DHT22;9269;50.838;12.094;2022-10-16T12:07:46;22.80;55.00
18287;DHT22;9269;50.838;12.094;2022-10-16T12:10:22;22.90;55.10
18287;DHT22;9269;50.838;12.094;2022-10-16T12:12:54;22.80;55.00
18287;DHT22;9269;50.838;12.094;2022-10-16T12:15:31;22.90;55.10
18287;DHT22;9269;50.838;12.094;2022-10-16T12:18:22;23.00;55.00
18287;DHT22;9269;50.838;12.094;2022-10-16T12:20:55;23.00;54.60
18287;DHT22;9269;50.838;12.094;2022-10-16T12:23:26;23.10;54.80
18287;DHT22;9269;50.838;12.094;2022-10-16T12:25:56;23.10;54.60
18287;DHT22;9269;50.838;12.094;2022-10-16T12:28:27;23.10;54.50
18287;DHT22;9269;50.838;12.094;2022-10-16T12:31:01;23.20;54.10
18287;DHT22;9269;50.838;12.094;2022-10-16T12:33:32;23.20;53.90
18287;DHT22;9269;50.838;12.094;2022-10-16T12:36:03;23.30;53.60
18287;DHT22;9269;50.838;12.094;2022-10-16T12:38:37;23.40;53.80
18287;DHT22;9269;50.838;12.094;2022-10-16T12:41:10;23.40;53.60
18287;DHT22;9269;50.838;12.094;2022-10-16T12:43:44;23.40;53.10
18287;DHT22;9269;50.838;12.094;2022-10-16T12:46:35;23.30;52.90
18287;DHT22;9269;50.838;12.094;2022-10-16T12:49:21;23.30;52.30
18287;DHT22;9269;50.838;12.094;2022-10-16T12:51:53;23.30;52.50
18287;DHT22;9269;50.838;12.094;2022-10-16T12:54:26;23.30;52.50
18287;DHT22;9269;50.838;12.094;2022-10-16T12:57:06;23.40;52.60
18287;DHT22;9269;50.838;12.094;2022-10-16T12:59:43;23.50;52.70
18287;DHT22;9269;50.838;12.094;2022-10-16T13:02:39;23.70;51.00
18287;DHT22;9269;50.838;12.094;2022-10-16T13:05:26;23.70;50.80
18287;DHT22;9269;50.838;12.094;2022-10-16T13:08:14;23.80;50.20
18287;DHT22;9269;50.838;12.094;2022-10-16T13:10:58;23.80;50.40
18287;DHT22;9269;50.838;12.094;2022-10-16T13:13:51;23.90;50.00
18287;DHT22;9269;50.838;12.094;2022-10-16T13:16:30;23.90;50.10
18287;DHT22;9269;50.838;12.094;2022-10-16T13:19:11;24.10;49.80
18287;DHT22;9269;50.838;12.094;2022-10-16T13:21:48;24.20;49.20
18287;DHT22;9269;50.838;12.094;2022-10-16T13:24:30;24.20;49.30
18287;DHT22;9269;50.838;12.094;2022-10-16T13:27:12;24.30;48.90
18287;DHT22;9269;50.838;12.094;2022-10-16T13:29:44;24.20;49.20
18287;DHT22;9269;50.838;12.094;2022-10-16T13:32:15;24.10;48.80
18287;DHT22;9269;50.838;12.094;2022-10-16T13:34:49;24.10;49.40
18287;DHT22;9269;50.838;12.094;2022-10-16T13:37:22;24.20;48.70
18287;DHT22;9269;50.838;12.094;2022-10-16T13:40:04;24.30;48.70
18287;DHT22;9269;50.838;12.094;2022-10-16T13:42:36;24.20;47.90
18287;DHT22;9269;50.838;12.094;2022-10-16T13:45:05;24.20;48.10
18287;DHT22;9269;50.838;12.094;2022-10-16T13:47:38;24.20;48.10
18287;DHT22;9269;50.838;12.094;2022-10-16T13:50:12;24.30;48.00
18287;DHT22;9269;50.838;12.094;2022-10-16T13:52:41;24.20;48.00
18287;DHT22;9269;50.838;12.094;2022-10-16T13:55:13;24.30;47.60
18287;DHT22;9269;50.838;12.094;2022-10-16T13:57:47;24.30;47.80
18287;DHT22;9269;50.838;12.094;2022-10-16T14:00:22;24.30;47.10
18287;DHT22;9269;50.838;12.094;2022-10-16T14:02:55;24.30;47.50
18287;DHT22;9269;50.838;12.094;2022-10-16T14:05:30;24.30;47.30
18287;DHT22;9269;50.838;12.094;2022-10-16T14:07:59;24.30;47.30
18287;DHT22;9269;50.838;12.094;2022-10-16T14:10:31;24.30;47.20
18287;DHT22;9269;50.838;12.094;2022-10-16T14:13:03;24.30;47.50
18287;DHT22;9269;50.838;12.094;2022-10-16T14:15:36;24.20;47.10
18287;DHT22;9269;50.838;12.094;2022-10-16T14:18:05;24.10;46.90
18287;DHT22;9269;50.838;12.094;2022-10-16T14:20:35;24.20;46.60
18287;DHT22;9269;50.838;12.094;2022-10-16T14:23:20;24.00;46.60
18287;DHT22;9269;50.838;12.094;2022-10-16T14:25:49;24.00;46.70
18287;DHT22;9269;50.838;12.094;2022-10-16T14:28:20;24.00;46.70
18287;DHT22;9269;50.838;12.094;2022-10-16T14:30:53;23.90;46.50
18287;DHT22;9269;50.838;12.094;2022-10-16T14:33:32;23.80;46.70
18287;DHT22;9269;50.838;12.094;2022-10-16T14:36:04;23.80;46.90
18287;DHT22;9269;50.838;12.094;2022-10-16T14:38:34;23.70;46.60
18287;DHT22;9269;50.838;12.094;2022-10-16T14:41:03;23.70;46.50
18287;DHT22;9269;50.838;12.094;2022-10-16T14:43:36;23.60;48.10
18287;DHT22;9269;50.838;12.094;2022-10-16T14:46:10;23.50;48.10
18287;DHT22;9269;50.838;12.094;2022-10-16T14:48:41;23.50;48.30
18287;DHT22;9269;50.838;12.094;2022-10-16T14:51:13;23.40;48.20
18287;DHT22;9269;50.838;12.094;2022-10-16T14:53:43;23.30;48.30
18287;DHT22;9269;50.838;12.094;2022-10-16T14:56:16;23.30;48.90
18287;DHT22;9269;50.838;12.094;2022-10-16T14:58:46;23.30;48.40
18287;DHT22;9269;50.838;12.094;2022-10-16T15:01:14;23.20;48.90
18287;DHT22;9269;50.838;12.094;2022-10-16T15:03:44;23.30;49.30
18287;DHT22;9269;50.838;12.094;2022-10-16T15:06:15;23.20;49.00
18287;DHT22;9269;50.838;12.094;2022-10-16T15:08:45;23.20;49.00
18287;DHT22;9269;50.838;12.094;2022-10-16T15:11:16;23.10;49.20
18287;DHT22;9269;50.838;12.094;2022-10-16T15:13:45;23.20;49.20
18287;DHT22;9269;50.838;12.094;2022-10-16T15:16:16;23.10;49.00
18287;DHT22;9269;50.838;12.094;2022-10-16T15:18:45;23.10;49.10
18287;DHT22;9269;50.838;12.094;2022-10-16T15:21:22;23.10;49.60
18287;DHT22;9269;50.838;12.094;2022-10-16T15:23:52;23.00;49.80
18287;DHT22;9269;50.838;12.094;2022-10-16T15:26:20;23.00;49.80
18287;DHT22;9269;50.838;12.094;2022-10-16T15:28:49;23.00;49.90
18287;DHT22;9269;50.838;12.094;2022-10-16T15:31:18;22.90;50.00
18287;DHT22;9269;50.838;12.094;2022-10-16T15:33:50;22.80;50.00
18287;DHT22;9269;50.838;12.094;2022-10-16T15:36:30;22.90;50.10
18287;DHT22;9269;50.838;12.094;2022-10-16T15:39:01;22.80;50.30
18287;DHT22;9269;50.838;12.094;2022-10-16T15:41:29;22.70;50.20
18287;DHT22;9269;50.838;12.094;2022-10-16T15:43:58;22.70;50.10
18287;DHT22;9269;50.838;12.094;2022-10-16T15:46:27;22.70;50.60
18287;DHT22;9269;50.838;12.094;2022-10-16T15:48:58;22.60;50.40
18287;DHT22;9269;50.838;12.094;2022-10-16T15:51:28;22.60;50.50
18287;DHT22;9269;50.838;12.094;2022-10-16T15:53:59;22.50;50.90
18287;DHT22;9269;50.838;12.094;2022-10-16T15:56:29;22.50;50.70
18287;DHT22;9269;50.838;12.094;2022-10-16T15:59:00;22.50;50.70
18287;DHT22;9269;50.838;12.094;2022-10-16T16:01:32;22.40;50.70
18287;DHT22;9269;50.838;12.094;2022-10-16T16:04:01;22.40;50.60
18287;DHT22;9269;50.838;12.094;2022-10-16T16:06:43;22.30;50.90
18287;DHT22;9269;50.838;12.094;2022-10-16T16:09:13;22.30;51.30
18287;DHT22;9269;50.838;12.094;2022-10-16T16:11:42;22.20;51.00